sensor_id;sensor_type;location;lat;lon;timestamp;P1;durP1;ratioP1;P2;durP2;ratioP2
74528;SDS011;63009;52.584;5.932;2023-01-29T00:01:34;17.70;;;9.27;;
74528;SDS011;63009;52.584;5.932;2023-01-29T00:04:00;16.40;;;8.57;;
74528;SDS011;63009;52.584;5.932;2023-01-29T00:06:25;22.50;;;11.50;;
74528;SDS011;63009;52.584;5.932;2023-01-29T00:08:51;24.10;;;12.77;;
74528;SDS011;63009;52.584;5.932;2023-01-29T00:11:16;26.50;;;12.47;;
74528;SDS011;63009;52.584;5.932;2023-01-29T00:13:42;25.23;;;11.52;;
74528;SDS011;63009;52.584;5.932;2023-01-29T00:16:08;24.25;;;12.23;;
74528;SDS011;63009;52.584;5.932;2023-01-29T00:18:36;21.17;;;10.18;;
74528;SDS011;63009;52.584;5.932;2023-01-29T00:21:03;21.80;;;10.93;;
74528;SDS011;63009;52.584;5.932;2023-01-29T00:23:28;22.17;;;11.75;;
74528;SDS011;63009;52.584;5.932;2023-01-29T00:25:53;20.13;;;10.63;;
74528;SDS011;63009;52.584;5.932;2023-01-29T00:28:19;22.23;;;11.18;;
74528;SDS011;63009;52.584;5.932;2023-01-29T00:30:44;21.42;;;9.95;;
74528;SDS011;63009;52.584;5.932;2023-01-29T00:33:09;24.40;;;10.67;;
74528;SDS011;63009;52.584;5.932;2023-01-29T00:35:37;17.35;;;10.18;;
74528;SDS011;63009;52.584;5.932;2023-01-29T00:38:04;19.70;;;11.13;;
74528;SDS011;63009;52.584;5.932;2023-01-29T00:40:29;18.17;;;9.73;;
74528;SDS011;63009;52.584;5.932;2023-01-29T00:43:14;21.55;;;10.57;;
74528;SDS011;63009;52.584;5.932;2023-01-29T00:45:58;28.40;;;14.77;;
74528;SDS011;63009;52.584;5.932;2023-01-29T00:48:23;25.08;;;11.45;;
74528;SDS011;63009;52.584;5.932;2023-01-29T00:50:48;20.70;;;10.23;;
74528;SDS011;63009;52.584;5.932;2023-01-29T00:53:14;24.10;;;12.80;;
74528;SDS011;63009;52.584;5.932;2023-01-29T00:55:39;22.30;;;12.57;;
74528;SDS011;63009;52.584;5.932;2023-01-29T00:58:04;29.03;;;14.00;;
74528;SDS011;63009;52.584;5.932;2023-01-29T01:00:29;28.87;;;13.33;;
74528;SDS011;63009;52.584;5.932;2023-01-29T01:02:55;30.47;;;13.43;;
74528;SDS011;63009;52.584;5.932;2023-01-29T01:05:29;26.70;;;13.40;;
74528;SDS011;63009;52.584;5.932;2023-01-29T01:07:55;24.67;;;12.60;;
74528;SDS011;63009;52.584;5.932;2023-01-29T01:10:23;20.75;;;11.35;;
74528;SDS011;63009;52.584;5.932;2023-01-29T01:13:01;28.55;;;12.90;;
74528;SDS011;63009;52.584;5.932;2023-01-29T01:15:29;30.45;;;14.93;;
74528;SDS011;63009;52.584;5.932;2023-01-29T01:17:56;27.02;;;14.48;;
74528;SDS011;63009;52.584;5.932;2023-01-29T01:20:24;37.53;;;18.73;;
74528;SDS011;63009;52.584;5.932;2023-01-29T01:22:52;37.88;;;19.17;;
74528;SDS011;63009;52.584;5.932;2023-01-29T01:25:18;31.77;;;16.63;;
74528;SDS011;63009;52.584;5.932;2023-01-29T01:27:43;32.92;;;14.45;;
74528;SDS011;63009;52.584;5.932;2023-01-29T01:30:13;31.60;;;15.30;;
74528;SDS011;63009;52.584;5.932;2023-01-29T01:32:39;30.15;;;14.25;;
74528;SDS011;63009;52.584;5.932;2023-01-29T01:35:06;26.10;;;13.48;;
74528;SDS011;63009;52.584;5.932;2023-01-29T01:37:33;45.25;;;20.90;;
74528;SDS011;63009;52.584;5.932;2023-01-29T01:40:01;49.95;;;23.45;;
74528;SDS011;63009;52.584;5.932;2023-01-29T01:42:29;46.97;;;24.88;;
74528;SDS011;63009;52.584;5.932;2023-01-29T01:44:59;30.38;;;14.57;;
74528;SDS011;63009;52.584;5.932;2023-01-29T01:47:31;39.83;;;19.25;;
74528;SDS011;63009;52.584;5.932;2023-01-29T01:50:09;40.95;;;22.50;;
74528;SDS011;63009;52.584;5.932;2023-01-29T01:52:39;39.05;;;18.98;;
74528;SDS011;63009;52.584;5.932;2023-01-29T01:55:09;36.35;;;21.10;;
74528;SDS011;63009;52.584;5.932;2023-01-29T01:57:37;37.90;;;21.33;;
74528;SDS011;63009;52.584;5.932;2023-01-29T02:00:07;39.95;;;20.63;;
74528;SDS011;63009;52.584;5.932;2023-01-29T02:02:36;37.65;;;21.05;;
74528;SDS011;63009;52.584;5.932;2023-01-29T02:08:06;37.50;;;18.70;;
74528;SDS011;63009;52.584;5.932;2023-01-29T02:10:51;31.98;;;18.20;;
74528;SDS011;63009;52.584;5.932;2023-01-29T02:13:17;34.30;;;19.58;;
74528;SDS011;63009;52.584;5.932;2023-01-29T02:15:46;40.45;;;21.55;;
74528;SDS011;63009;52.584;5.932;2023-01-29T02:18:14;31.75;;;18.80;;
74528;SDS011;63009;52.584;5.932;2023-01-29T02:20:43;25.30;;;15.75;;
74528;SDS011;63009;52.584;5.932;2023-01-29T02:26:05;22.90;;;14.60;;
74528;SDS011;63009;52.584;5.932;2023-01-29T02:28:53;24.02;;;13.85;;
74528;SDS011;63009;52.584;5.932;2023-01-29T02:31:47;20.48;;;11.27;;
74528;SDS011;63009;52.584;5.932;2023-01-29T02:34:35;19.65;;;11.40;;
74528;SDS011;63009;52.584;5.932;2023-01-29T02:37:32;21.73;;;12.60;;
74528;SDS011;63009;52.584;5.932;2023-01-29T02:40:22;24.02;;;12.80;;
74528;SDS011;63009;52.584;5.932;2023-01-29T02:45:53;22.70;;;11.43;;
74528;SDS011;63009;52.584;5.932;2023-01-29T02:48:40;21.17;;;12.35;;
74528;SDS011;63009;52.584;5.932;2023-01-29T02:51:16;22.60;;;12.48;;
74528;SDS011;63009;52.584;5.932;2023-01-29T02:53:51;24.42;;;13.18;;
74528;SDS011;63009;52.584;5.932;2023-01-29T02:56:32;22.27;;;12.73;;
74528;SDS011;63009;52.584;5.932;2023-01-29T02:59:14;22.30;;;12.77;;
74528;SDS011;63009;52.584;5.932;2023-01-29T03:01:47;22.40;;;12.68;;
74528;SDS011;63009;52.584;5.932;2023-01-29T03:04:17;21.13;;;12.27;;
74528;SDS011;63009;52.584;5.932;2023-01-29T03:06:54;22.83;;;12.38;;
74528;SDS011;63009;52.584;5.932;2023-01-29T03:12:04;22.55;;;11.48;;
74528;SDS011;63009;52.584;5.932;2023-01-29T03:14:42;24.63;;;13.38;;
74528;SDS011;63009;52.584;5.932;2023-01-29T03:17:32;20.60;;;12.38;;
74528;SDS011;63009;52.584;5.932;2023-01-29T03:20:04;22.38;;;11.13;;
74528;SDS011;63009;52.584;5.932;2023-01-29T03:22:37;24.23;;;12.00;;
74528;SDS011;63009;52.584;5.932;2023-01-29T03:25:04;20.55;;;11.50;;
74528;SDS011;63009;52.584;5.932;2023-01-29T03:27:52;20.73;;;10.93;;
74528;SDS011;63009;52.584;5.932;2023-01-29T03:30:40;25.23;;;12.93;;
74528;SDS011;63009;52.584;5.932;2023-01-29T03:33:31;20.90;;;11.52;;
74528;SDS011;63009;52.584;5.932;2023-01-29T03:36:12;20.83;;;11.93;;
74528;SDS011;63009;52.584;5.932;2023-01-29T03:38:42;20.63;;;11.15;;
74528;SDS011;63009;52.584;5.932;2023-01-29T03:43:56;22.40;;;12.63;;
74528;SDS011;63009;52.584;5.932;2023-01-29T03:46:41;24.60;;;12.80;;
74528;SDS011;63009;52.584;5.932;2023-01-29T03:49:18;22.00;;;12.05;;
74528;SDS011;63009;52.584;5.932;2023-01-29T03:51:55;22.30;;;12.20;;
74528;SDS011;63009;52.584;5.932;2023-01-29T03:54:31;23.85;;;13.23;;
74528;SDS011;63009;52.584;5.932;2023-01-29T03:57:27;21.95;;;12.80;;
74528;SDS011;63009;52.584;5.932;2023-01-29T04:00:10;22.85;;;12.10;;
74528;SDS011;63009;52.584;5.932;2023-01-29T04:02:46;23.88;;;13.10;;
74528;SDS011;63009;52.584;5.932;2023-01-29T04:05:15;22.63;;;13.25;;
74528;SDS011;63009;52.584;5.932;2023-01-29T04:07:44;25.92;;;12.80;;
74528;SDS011;63009;52.584;5.932;2023-01-29T04:10:15;21.70;;;12.52;;
74528;SDS011;63009;52.584;5.932;2023-01-29T04:12:49;27.13;;;13.27;;
74528;SDS011;63009;52.584;5.932;2023-01-29T04:15:19;24.45;;;13.65;;
74528;SDS011;63009;52.584;5.932;2023-01-29T04:17:51;21.73;;;13.38;;
74528;SDS011;63009;52.584;5.932;2023-01-29T04:20:17;23.30;;;13.93;;
74528;SDS011;63009;52.584;5.932;2023-01-29T04:22:47;25.58;;;12.70;;
74528;SDS011;63009;52.584;5.932;2023-01-29T04:25:16;20.63;;;13.13;;
74528;SDS011;63009;52.584;5.932;2023-01-29T04:30:56;22.92;;;12.10;;
74528;SDS011;63009;52.584;5.932;2023-01-29T04:33:34;22.05;;;12.80;;
74528;SDS011;63009;52.584;5.932;2023-01-29T04:44:31;22.67;;;12.65;;
74528;SDS011;63009;52.584;5.932;2023-01-29T04:47:04;24.73;;;14.13;;
74528;SDS011;63009;52.584;5.932;2023-01-29T04:49:46;21.20;;;11.95;;
74528;SDS011;63009;52.584;5.932;2023-01-29T04:52:21;24.48;;;13.45;;
74528;SDS011;63009;52.584;5.932;2023-01-29T04:58:01;23.17;;;12.80;;
74528;SDS011;63009;52.584;5.932;2023-01-29T05:00:38;21.65;;;12.80;;
74528;SDS011;63009;52.584;5.932;2023-01-29T05:03:06;22.02;;;12.43;;
74528;SDS011;63009;52.584;5.932;2023-01-29T05:05:33;21.60;;;13.45;;
74528;SDS011;63009;52.584;5.932;2023-01-29T05:08:00;23.38;;;12.73;;
74528;SDS011;63009;52.584;5.932;2023-01-29T05:10:27;20.42;;;11.80;;
74528;SDS011;63009;52.584;5.932;2023-01-29T05:12:55;25.02;;;13.27;;
74528;SDS011;63009;52.584;5.932;2023-01-29T05:15:30;25.10;;;15.00;;
74528;SDS011;63009;52.584;5.932;2023-01-29T05:17:59;24.80;;;13.15;;
74528;SDS011;63009;52.584;5.932;2023-01-29T05:20:26;20.73;;;11.82;;
74528;SDS011;63009;52.584;5.932;2023-01-29T05:22:56;21.30;;;13.88;;
74528;SDS011;63009;52.584;5.932;2023-01-29T05:25:22;25.23;;;14.95;;
74528;SDS011;63009;52.584;5.932;2023-01-29T05:27:49;25.05;;;14.50;;
74528;SDS011;63009;52.584;5.932;2023-01-29T05:30:27;23.45;;;12.45;;
74528;SDS011;63009;52.584;5.932;2023-01-29T05:32:53;21.92;;;14.18;;
74528;SDS011;63009;52.584;5.932;2023-01-29T05:35:19;25.52;;;13.82;;
74528;SDS011;63009;52.584;5.932;2023-01-29T05:37:44;22.47;;;12.87;;
74528;SDS011;63009;52.584;5.932;2023-01-29T05:40:10;25.10;;;14.15;;
74528;SDS011;63009;52.584;5.932;2023-01-29T05:42:35;22.40;;;13.48;;
74528;SDS011;63009;52.584;5.932;2023-01-29T05:45:00;23.80;;;13.30;;
74528;SDS011;63009;52.584;5.932;2023-01-29T05:47:26;24.93;;;14.40;;
74528;SDS011;63009;52.584;5.932;2023-01-29T05:49:51;26.23;;;15.17;;
74528;SDS011;63009;52.584;5.932;2023-01-29T05:52:16;25.63;;;13.40;;
74528;SDS011;63009;52.584;5.932;2023-01-29T05:54:41;24.87;;;15.50;;
74528;SDS011;63009;52.584;5.932;2023-01-29T05:57:07;27.20;;;15.10;;
74528;SDS011;63009;52.584;5.932;2023-01-29T05:59:32;23.73;;;14.00;;
74528;SDS011;63009;52.584;5.932;2023-01-29T06:01:57;24.53;;;14.43;;
74528;SDS011;63009;52.584;5.932;2023-01-29T06:04:22;27.02;;;14.32;;
74528;SDS011;63009;52.584;5.932;2023-01-29T06:06:48;24.08;;;12.73;;
74528;SDS011;63009;52.584;5.932;2023-01-29T06:09:13;24.15;;;14.55;;
74528;SDS011;63009;52.584;5.932;2023-01-29T06:11:39;26.35;;;13.55;;
74528;SDS011;63009;52.584;5.932;2023-01-29T06:14:04;26.23;;;13.73;;
74528;SDS011;63009;52.584;5.932;2023-01-29T06:16:30;26.05;;;14.20;;
74528;SDS011;63009;52.584;5.932;2023-01-29T06:18:55;26.38;;;15.90;;
74528;SDS011;63009;52.584;5.932;2023-01-29T06:21:20;24.73;;;14.07;;
74528;SDS011;63009;52.584;5.932;2023-01-29T06:23:46;25.95;;;15.25;;
74528;SDS011;63009;52.584;5.932;2023-01-29T06:26:12;25.63;;;14.27;;
74528;SDS011;63009;52.584;5.932;2023-01-29T06:28:38;27.88;;;14.20;;
74528;SDS011;63009;52.584;5.932;2023-01-29T06:31:04;29.95;;;16.95;;
74528;SDS011;63009;52.584;5.932;2023-01-29T06:33:30;26.02;;;15.88;;
74528;SDS011;63009;52.584;5.932;2023-01-29T06:35:56;27.23;;;14.38;;
74528;SDS011;63009;52.584;5.932;2023-01-29T06:38:25;27.92;;;15.52;;
74528;SDS011;63009;52.584;5.932;2023-01-29T06:40:52;29.23;;;16.67;;
74528;SDS011;63009;52.584;5.932;2023-01-29T06:43:17;25.50;;;13.55;;
74528;SDS011;63009;52.584;5.932;2023-01-29T06:45:47;28.27;;;15.75;;
74528;SDS011;63009;52.584;5.932;2023-01-29T06:48:13;27.13;;;14.93;;
74528;SDS011;63009;52.584;5.932;2023-01-29T06:50:38;30.67;;;17.17;;
74528;SDS011;63009;52.584;5.932;2023-01-29T06:53:03;26.43;;;13.80;;
74528;SDS011;63009;52.584;5.932;2023-01-29T06:55:29;28.27;;;15.27;;
74528;SDS011;63009;52.584;5.932;2023-01-29T06:57:54;32.83;;;15.47;;
74528;SDS011;63009;52.584;5.932;2023-01-29T07:17:08;27.67;;;14.57;;
74528;SDS011;63009;52.584;5.932;2023-01-29T07:19:34;28.23;;;13.17;;
74528;SDS011;63009;52.584;5.932;2023-01-29T07:21:59;28.73;;;15.80;;
74528;SDS011;63009;52.584;5.932;2023-01-29T07:24:27;27.92;;;14.45;;
74528;SDS011;63009;52.584;5.932;2023-01-29T07:26:52;29.38;;;14.98;;
74528;SDS011;63009;52.584;5.932;2023-01-29T07:29:17;31.37;;;15.97;;
74528;SDS011;63009;52.584;5.932;2023-01-29T07:31:43;31.70;;;15.27;;
74528;SDS011;63009;52.584;5.932;2023-01-29T07:34:08;27.27;;;16.00;;
74528;SDS011;63009;52.584;5.932;2023-01-29T07:36:33;28.10;;;15.03;;
74528;SDS011;63009;52.584;5.932;2023-01-29T07:39:01;28.27;;;14.63;;
74528;SDS011;63009;52.584;5.932;2023-01-29T07:41:26;28.98;;;15.35;;
74528;SDS011;63009;52.584;5.932;2023-01-29T07:43:51;28.50;;;15.03;;
74528;SDS011;63009;52.584;5.932;2023-01-29T07:46:16;29.77;;;15.77;;
74528;SDS011;63009;52.584;5.932;2023-01-29T07:48:42;28.30;;;15.13;;
74528;SDS011;63009;52.584;5.932;2023-01-29T07:51:07;27.23;;;15.60;;
74528;SDS011;63009;52.584;5.932;2023-01-29T07:53:32;27.67;;;14.20;;
74528;SDS011;63009;52.584;5.932;2023-01-29T07:55:58;31.45;;;16.95;;
74528;SDS011;63009;52.584;5.932;2023-01-29T07:58:23;29.27;;;14.83;;
74528;SDS011;63009;52.584;5.932;2023-01-29T08:00:48;28.03;;;16.43;;
74528;SDS011;63009;52.584;5.932;2023-01-29T08:03:14;26.43;;;12.93;;
74528;SDS011;63009;52.584;5.932;2023-01-29T08:05:41;27.17;;;14.90;;
74528;SDS011;63009;52.584;5.932;2023-01-29T08:08:07;28.42;;;14.55;;
74528;SDS011;63009;52.584;5.932;2023-01-29T08:10:36;29.23;;;16.60;;
74528;SDS011;63009;52.584;5.932;2023-01-29T08:13:02;27.80;;;16.15;;
74528;SDS011;63009;52.584;5.932;2023-01-29T08:15:28;26.45;;;13.32;;
74528;SDS011;63009;52.584;5.932;2023-01-29T08:17:53;26.35;;;13.30;;
74528;SDS011;63009;52.584;5.932;2023-01-29T08:20:19;31.08;;;15.23;;
74528;SDS011;63009;52.584;5.932;2023-01-29T08:22:45;29.30;;;14.63;;
74528;SDS011;63009;52.584;5.932;2023-01-29T08:25:11;28.95;;;15.57;;
74528;SDS011;63009;52.584;5.932;2023-01-29T08:27:37;27.90;;;14.25;;
74528;SDS011;63009;52.584;5.932;2023-01-29T08:30:03;28.63;;;16.30;;
74528;SDS011;63009;52.584;5.932;2023-01-29T08:32:29;27.27;;;14.68;;
74528;SDS011;63009;52.584;5.932;2023-01-29T08:34:55;30.63;;;16.77;;
74528;SDS011;63009;52.584;5.932;2023-01-29T08:37:20;26.57;;;14.17;;
74528;SDS011;63009;52.584;5.932;2023-01-29T08:39:45;26.43;;;14.80;;
74528;SDS011;63009;52.584;5.932;2023-01-29T08:42:11;26.00;;;14.27;;
74528;SDS011;63009;52.584;5.932;2023-01-29T08:44:36;25.30;;;15.95;;
74528;SDS011;63009;52.584;5.932;2023-01-29T08:47:01;27.02;;;13.15;;
74528;SDS011;63009;52.584;5.932;2023-01-29T08:49:27;25.67;;;15.32;;
74528;SDS011;63009;52.584;5.932;2023-01-29T08:51:53;26.83;;;14.53;;
74528;SDS011;63009;52.584;5.932;2023-01-29T08:54:20;27.35;;;14.57;;
74528;SDS011;63009;52.584;5.932;2023-01-29T08:56:46;27.63;;;14.05;;
74528;SDS011;63009;52.584;5.932;2023-01-29T08:59:11;25.03;;;14.07;;
74528;SDS011;63009;52.584;5.932;2023-01-29T09:01:36;26.60;;;13.98;;
74528;SDS011;63009;52.584;5.932;2023-01-29T09:04:02;27.70;;;13.93;;
74528;SDS011;63009;52.584;5.932;2023-01-29T09:06:27;27.87;;;13.97;;
74528;SDS011;63009;52.584;5.932;2023-01-29T09:08:52;28.35;;;14.57;;
74528;SDS011;63009;52.584;5.932;2023-01-29T09:11:18;26.02;;;15.05;;
74528;SDS011;63009;52.584;5.932;2023-01-29T09:13:43;28.42;;;15.73;;
74528;SDS011;63009;52.584;5.932;2023-01-29T09:16:08;24.87;;;13.10;;
74528;SDS011;63009;52.584;5.932;2023-01-29T09:18:34;29.33;;;16.40;;
74528;SDS011;63009;52.584;5.932;2023-01-29T09:20:59;26.60;;;14.80;;
74528;SDS011;63009;52.584;5.932;2023-01-29T09:23:26;24.70;;;13.50;;
74528;SDS011;63009;52.584;5.932;2023-01-29T09:25:52;29.30;;;14.90;;
74528;SDS011;63009;52.584;5.932;2023-01-29T09:28:18;26.50;;;14.27;;
74528;SDS011;63009;52.584;5.932;2023-01-29T09:30:43;26.27;;;15.32;;
74528;SDS011;63009;52.584;5.932;2023-01-29T09:33:09;26.35;;;13.43;;
74528;SDS011;63009;52.584;5.932;2023-01-29T09:35:34;26.13;;;13.53;;
74528;SDS011;63009;52.584;5.932;2023-01-29T09:37:59;31.48;;;16.48;;
74528;SDS011;63009;52.584;5.932;2023-01-29T09:40:30;29.13;;;16.30;;
74528;SDS011;63009;52.584;5.932;2023-01-29T09:43:06;25.02;;;14.43;;
74528;SDS011;63009;52.584;5.932;2023-01-29T09:45:39;24.77;;;13.52;;
74528;SDS011;63009;52.584;5.932;2023-01-29T09:48:13;26.48;;;14.90;;
74528;SDS011;63009;52.584;5.932;2023-01-29T09:50:46;26.33;;;13.65;;
74528;SDS011;63009;52.584;5.932;2023-01-29T09:53:24;25.20;;;13.38;;
74528;SDS011;63009;52.584;5.932;2023-01-29T09:58:34;25.58;;;14.82;;
74528;SDS011;63009;52.584;5.932;2023-01-29T10:09:23;28.60;;;14.77;;
74528;SDS011;63009;52.584;5.932;2023-01-29T10:23:36;27.23;;;13.93;;
74528;SDS011;63009;52.584;5.932;2023-01-29T10:26:06;25.85;;;14.32;;
74528;SDS011;63009;52.584;5.932;2023-01-29T10:28:37;25.42;;;15.50;;
74528;SDS011;63009;52.584;5.932;2023-01-29T10:31:11;26.73;;;13.88;;
74528;SDS011;63009;52.584;5.932;2023-01-29T10:33:42;24.73;;;13.90;;
74528;SDS011;63009;52.584;5.932;2023-01-29T10:36:18;24.05;;;14.90;;
74528;SDS011;63009;52.584;5.932;2023-01-29T10:38:48;22.73;;;12.85;;
74528;SDS011;63009;52.584;5.932;2023-01-29T10:47:05;25.83;;;13.48;;
74528;SDS011;63009;52.584;5.932;2023-01-29T10:55:50;25.10;;;14.48;;
74528;SDS011;63009;52.584;5.932;2023-01-29T10:58:30;24.95;;;13.38;;
74528;SDS011;63009;52.584;5.932;2023-01-29T11:01:15;23.42;;;13.10;;
74528;SDS011;63009;52.584;5.932;2023-01-29T11:03:40;23.38;;;13.13;;
74528;SDS011;63009;52.584;5.932;2023-01-29T11:06:27;28.50;;;15.30;;
74528;SDS011;63009;52.584;5.932;2023-01-29T11:09:17;23.50;;;13.40;;
74528;SDS011;63009;52.584;5.932;2023-01-29T11:12:12;24.35;;;12.95;;
74528;SDS011;63009;52.584;5.932;2023-01-29T11:14:47;23.95;;;14.30;;
74528;SDS011;63009;52.584;5.932;2023-01-29T11:17:20;25.13;;;13.20;;
74528;SDS011;63009;52.584;5.932;2023-01-29T11:19:48;23.70;;;13.75;;
74528;SDS011;63009;52.584;5.932;2023-01-29T11:22:20;23.10;;;12.45;;
74528;SDS011;63009;52.584;5.932;2023-01-29T11:25:14;25.40;;;14.50;;
74528;SDS011;63009;52.584;5.932;2023-01-29T11:27:58;23.02;;;13.55;;
74528;SDS011;63009;52.584;5.932;2023-01-29T11:30:35;24.23;;;14.80;;
74528;SDS011;63009;52.584;5.932;2023-01-29T11:33:17;26.90;;;14.88;;
74528;SDS011;63009;52.584;5.932;2023-01-29T11:35:44;27.58;;;14.23;;
74528;SDS011;63009;52.584;5.932;2023-01-29T11:38:23;25.60;;;13.27;;
74528;SDS011;63009;52.584;5.932;2023-01-29T11:40:50;24.15;;;13.93;;
74528;SDS011;63009;52.584;5.932;2023-01-29T11:43:17;25.27;;;13.90;;
74528;SDS011;63009;52.584;5.932;2023-01-29T11:45:43;26.95;;;13.98;;
74528;SDS011;63009;52.584;5.932;2023-01-29T11:48:22;26.08;;;13.93;;
74528;SDS011;63009;52.584;5.932;2023-01-29T11:50:56;24.77;;;14.30;;
74528;SDS011;63009;52.584;5.932;2023-01-29T11:53:33;26.35;;;13.75;;
74528;SDS011;63009;52.584;5.932;2023-01-29T11:56:03;26.70;;;14.18;;
74528;SDS011;63009;52.584;5.932;2023-01-29T11:58:31;24.77;;;14.40;;
74528;SDS011;63009;52.584;5.932;2023-01-29T12:00:59;25.77;;;14.13;;
74528;SDS011;63009;52.584;5.932;2023-01-29T12:03:32;25.85;;;15.20;;
74528;SDS011;63009;52.584;5.932;2023-01-29T12:06:05;25.85;;;14.05;;
74528;SDS011;63009;52.584;5.932;2023-01-29T12:08:52;27.30;;;13.70;;
74528;SDS011;63009;52.584;5.932;2023-01-29T12:13:55;27.67;;;15.13;;
74528;SDS011;63009;52.584;5.932;2023-01-29T12:16:30;24.90;;;13.60;;
74528;SDS011;63009;52.584;5.932;2023-01-29T12:22:00;24.73;;;14.65;;
74528;SDS011;63009;52.584;5.932;2023-01-29T12:24:40;24.80;;;15.10;;
74528;SDS011;63009;52.584;5.932;2023-01-29T12:27:19;25.42;;;12.85;;
74528;SDS011;63009;52.584;5.932;2023-01-29T12:29:55;26.83;;;14.60;;
74528;SDS011;63009;52.584;5.932;2023-01-29T12:32:38;25.25;;;14.65;;
74528;SDS011;63009;52.584;5.932;2023-01-29T12:38:11;24.42;;;14.00;;
74528;SDS011;63009;52.584;5.932;2023-01-29T12:43:47;28.52;;;15.82;;
74528;SDS011;63009;52.584;5.932;2023-01-29T12:46:19;28.60;;;14.65;;
74528;SDS011;63009;52.584;5.932;2023-01-29T12:48:48;26.73;;;14.60;;
74528;SDS011;63009;52.584;5.932;2023-01-29T12:51:24;28.05;;;15.60;;
74528;SDS011;63009;52.584;5.932;2023-01-29T12:54:04;31.50;;;15.48;;
74528;SDS011;63009;52.584;5.932;2023-01-29T12:59:23;26.88;;;15.13;;
74528;SDS011;63009;52.584;5.932;2023-01-29T13:02:04;27.08;;;15.05;;
74528;SDS011;63009;52.584;5.932;2023-01-29T13:04:42;30.73;;;14.43;;
74528;SDS011;63009;52.584;5.932;2023-01-29T13:07:13;27.33;;;15.55;;
74528;SDS011;63009;52.584;5.932;2023-01-29T13:09:43;29.25;;;16.65;;
74528;SDS011;63009;52.584;5.932;2023-01-29T13:12:15;30.52;;;16.48;;
74528;SDS011;63009;52.584;5.932;2023-01-29T13:17:24;29.38;;;15.82;;
74528;SDS011;63009;52.584;5.932;2023-01-29T13:19:56;29.23;;;16.40;;
74528;SDS011;63009;52.584;5.932;2023-01-29T13:22:28;30.48;;;16.55;;
74528;SDS011;63009;52.584;5.932;2023-01-29T13:24:59;28.92;;;15.73;;
74528;SDS011;63009;52.584;5.932;2023-01-29T13:27:28;31.05;;;16.33;;
74528;SDS011;63009;52.584;5.932;2023-01-29T13:29:55;29.55;;;14.93;;
74528;SDS011;63009;52.584;5.932;2023-01-29T13:32:22;29.60;;;16.52;;
74528;SDS011;63009;52.584;5.932;2023-01-29T13:34:51;30.25;;;16.85;;
74528;SDS011;63009;52.584;5.932;2023-01-29T13:37:23;29.13;;;17.00;;
74528;SDS011;63009;52.584;5.932;2023-01-29T13:39:53;31.88;;;17.50;;
74528;SDS011;63009;52.584;5.932;2023-01-29T13:45:04;31.25;;;17.08;;
74528;SDS011;63009;52.584;5.932;2023-01-29T13:47:32;30.95;;;16.48;;
74528;SDS011;63009;52.584;5.932;2023-01-29T13:50:20;32.55;;;19.52;;
74528;SDS011;63009;52.584;5.932;2023-01-29T13:53:01;31.60;;;16.30;;
74528;SDS011;63009;52.584;5.932;2023-01-29T13:55:30;33.40;;;17.48;;
74528;SDS011;63009;52.584;5.932;2023-01-29T14:10:25;34.08;;;18.83;;
74528;SDS011;63009;52.584;5.932;2023-01-29T14:15:35;38.17;;;19.40;;
74528;SDS011;63009;52.584;5.932;2023-01-29T14:18:18;33.53;;;17.73;;
74528;SDS011;63009;52.584;5.932;2023-01-29T14:23:20;34.63;;;19.03;;
74528;SDS011;63009;52.584;5.932;2023-01-29T14:25:46;31.95;;;17.33;;
74528;SDS011;63009;52.584;5.932;2023-01-29T14:28:13;37.42;;;18.83;;
74528;SDS011;63009;52.584;5.932;2023-01-29T14:30:42;34.63;;;17.27;;
74528;SDS011;63009;52.584;5.932;2023-01-29T14:33:45;36.75;;;19.42;;
74528;SDS011;63009;52.584;5.932;2023-01-29T14:36:05;34.35;;;18.10;;
74528;SDS011;63009;52.584;5.932;2023-01-29T14:38:36;35.20;;;18.58;;
74528;SDS011;63009;52.584;5.932;2023-01-29T14:41:13;34.80;;;17.30;;
74528;SDS011;63009;52.584;5.932;2023-01-29T14:43:47;38.38;;;19.50;;
74528;SDS011;63009;52.584;5.932;2023-01-29T14:48:57;33.80;;;18.70;;
74528;SDS011;63009;52.584;5.932;2023-01-29T14:51:22;33.38;;;16.63;;
74528;SDS011;63009;52.584;5.932;2023-01-29T14:57:03;37.42;;;19.15;;
74528;SDS011;63009;52.584;5.932;2023-01-29T14:59:34;38.55;;;19.42;;
74528;SDS011;63009;52.584;5.932;2023-01-29T15:02:14;36.38;;;18.05;;
74528;SDS011;63009;52.584;5.932;2023-01-29T15:04:53;38.45;;;19.40;;
74528;SDS011;63009;52.584;5.932;2023-01-29T15:07:36;34.28;;;19.73;;
74528;SDS011;63009;52.584;5.932;2023-01-29T15:10:10;35.63;;;19.30;;
74528;SDS011;63009;52.584;5.932;2023-01-29T15:12:45;33.42;;;19.55;;
74528;SDS011;63009;52.584;5.932;2023-01-29T15:15:35;33.65;;;18.48;;
74528;SDS011;63009;52.584;5.932;2023-01-29T15:20:53;35.35;;;18.73;;
74528;SDS011;63009;52.584;5.932;2023-01-29T15:23:30;37.65;;;19.63;;
74528;SDS011;63009;52.584;5.932;2023-01-29T15:25:57;36.53;;;20.35;;
74528;SDS011;63009;52.584;5.932;2023-01-29T15:28:25;34.28;;;18.45;;
74528;SDS011;63009;52.584;5.932;2023-01-29T15:30:55;35.78;;;17.40;;
74528;SDS011;63009;52.584;5.932;2023-01-29T15:33:23;33.80;;;18.88;;
74528;SDS011;63009;52.584;5.932;2023-01-29T15:35:48;31.48;;;17.90;;
74528;SDS011;63009;52.584;5.932;2023-01-29T15:38:22;29.60;;;16.73;;
74528;SDS011;63009;52.584;5.932;2023-01-29T15:40:51;32.65;;;17.85;;
74528;SDS011;63009;52.584;5.932;2023-01-29T15:43:43;33.78;;;15.60;;
74528;SDS011;63009;52.584;5.932;2023-01-29T15:46:09;32.30;;;17.38;;
74528;SDS011;63009;52.584;5.932;2023-01-29T15:48:43;33.08;;;18.15;;
74528;SDS011;63009;52.584;5.932;2023-01-29T15:51:12;31.30;;;17.15;;
74528;SDS011;63009;52.584;5.932;2023-01-29T15:53:41;32.63;;;17.20;;
74528;SDS011;63009;52.584;5.932;2023-01-29T15:56:14;28.85;;;15.98;;
74528;SDS011;63009;52.584;5.932;2023-01-29T15:58:45;31.67;;;16.90;;
74528;SDS011;63009;52.584;5.932;2023-01-29T16:01:14;32.17;;;16.15;;
74528;SDS011;63009;52.584;5.932;2023-01-29T16:03:40;29.52;;;15.45;;
74528;SDS011;63009;52.584;5.932;2023-01-29T16:06:06;29.90;;;16.90;;
74528;SDS011;63009;52.584;5.932;2023-01-29T16:08:32;29.17;;;16.55;;
74528;SDS011;63009;52.584;5.932;2023-01-29T16:11:02;33.30;;;17.55;;
74528;SDS011;63009;52.584;5.932;2023-01-29T16:13:30;30.20;;;16.00;;
74528;SDS011;63009;52.584;5.932;2023-01-29T16:16:00;30.05;;;16.25;;
74528;SDS011;63009;52.584;5.932;2023-01-29T16:18:32;29.05;;;14.98;;
74528;SDS011;63009;52.584;5.932;2023-01-29T16:21:01;30.25;;;16.20;;
74528;SDS011;63009;52.584;5.932;2023-01-29T16:23:34;33.10;;;16.42;;
74528;SDS011;63009;52.584;5.932;2023-01-29T16:26:06;27.65;;;14.80;;
74528;SDS011;63009;52.584;5.932;2023-01-29T16:28:38;29.05;;;15.02;;
74528;SDS011;63009;52.584;5.932;2023-01-29T16:31:05;29.25;;;16.77;;
74528;SDS011;63009;52.584;5.932;2023-01-29T16:33:34;31.00;;;16.20;;
74528;SDS011;63009;52.584;5.932;2023-01-29T16:36:02;30.30;;;17.42;;
74528;SDS011;63009;52.584;5.932;2023-01-29T16:38:35;27.70;;;14.98;;
74528;SDS011;63009;52.584;5.932;2023-01-29T16:41:43;29.55;;;16.48;;
74528;SDS011;63009;52.584;5.932;2023-01-29T16:46:23;30.88;;;16.80;;
74528;SDS011;63009;52.584;5.932;2023-01-29T16:49:47;30.92;;;16.08;;
74528;SDS011;63009;52.584;5.932;2023-01-29T16:51:51;28.67;;;15.57;;